Terminal Aerodrome Forecast
Issued by NWS Jackson, KY

Home | Current Version | Previous Version | Text Only | Print | Product List | Glossary On
Versions: 1 2 3 4 5 6 7 8 9 10 11 12 13
451
FTUS43 KJKL 220539
TAFJKL
TAF
KJKL 220539Z 2206/2306 00000KT 6SM BR BKN060
     FM220900 00000KT 2SM BR SCT025
     FM221100 00000KT 1/2SM FG SCT020
     FM221300 VRB03KT P6SM SCT040
     FM221900 VRB06KT P6SM VCSH BKN060
     FM230100 VRB03KT P6SM SCT150=

USA.gov is the U.S. government's official web portal to all federal, state and local government web resources and services.